createdAt,value
2022-08-27T00:05:09.620Z,18.73
2022-08-27T00:10:20.143Z,18.70
2022-08-27T00:15:28.272Z,18.67
2022-08-27T00:20:32.947Z,18.62
2022-08-27T00:25:40.545Z,18.63
2022-08-27T00:30:45.064Z,18.62
2022-08-27T00:35:50.109Z,18.67
2022-08-27T00:40:57.409Z,18.70
2022-08-27T00:46:07.747Z,18.72
2022-08-27T00:51:13.066Z,18.75
2022-08-27T00:56:25.218Z,18.80
2022-08-27T01:01:32.590Z,18.81
2022-08-27T01:06:40.684Z,18.78
2022-08-27T01:11:50.161Z,18.74
2022-08-27T01:16:57.422Z,18.75
2022-08-27T01:22:09.358Z,18.78
2022-08-27T01:27:34.353Z,18.81
2022-08-27T01:32:41.154Z,18.82
2022-08-27T01:37:49.548Z,18.84
2022-08-27T01:43:00.704Z,18.81
2022-08-27T01:48:07.781Z,18.76
2022-08-27T01:53:15.277Z,18.70
2022-08-27T01:58:26.021Z,18.70
2022-08-27T02:03:32.342Z,18.67
2022-08-27T02:08:38.554Z,18.68
2022-08-27T02:13:46.161Z,18.68
2022-08-27T02:18:52.132Z,18.70
2022-08-27T02:23:56.880Z,18.72
2022-08-27T02:29:04.821Z,18.76
2022-08-27T02:34:09.865Z,18.77
2022-08-27T02:39:14.802Z,18.78
2022-08-27T02:44:21.987Z,18.79
2022-08-27T02:49:27.147Z,18.77
2022-08-27T02:54:32.472Z,18.78
2022-08-27T02:59:40.173Z,18.78
2022-08-27T03:04:44.969Z,18.78
2022-08-27T03:09:49.586Z,18.76
2022-08-27T03:14:57.851Z,18.78
2022-08-27T03:20:03.918Z,18.74
2022-08-27T03:25:09.972Z,18.76
2022-08-27T03:30:20.815Z,18.77
2022-08-27T03:35:25.819Z,18.78
2022-08-27T03:40:30.544Z,18.75
2022-08-27T03:45:49.871Z,18.73
2022-08-27T03:51:08.190Z,18.73
2022-08-27T03:56:13.225Z,18.73
2022-08-27T04:01:20.804Z,18.73
2022-08-27T04:06:25.692Z,18.70
2022-08-27T04:11:30.849Z,18.62
2022-08-27T04:16:41.187Z,18.48
2022-08-27T04:21:45.681Z,18.38
2022-08-27T04:26:50.356Z,18.32
2022-08-27T04:31:58.314Z,18.30
2022-08-27T04:37:03.098Z,18.25
2022-08-27T04:42:08.340Z,18.20
2022-08-27T04:47:16.645Z,18.17
2022-08-27T04:52:21.399Z,18.18
2022-08-27T04:57:25.940Z,18.15
2022-08-27T05:02:33.343Z,18.15
2022-08-27T05:07:37.932Z,18.14
2022-08-27T05:12:44.911Z,18.17
2022-08-27T05:17:53.784Z,18.17
2022-08-27T05:23:03.269Z,18.16
2022-08-27T05:28:07.917Z,18.12
2022-08-27T05:33:17.911Z,18.08
2022-08-27T05:38:27.498Z,18.08
2022-08-27T05:43:32.335Z,18.06
2022-08-27T05:48:40.009Z,18.04
2022-08-27T05:53:45.285Z,18.01
2022-08-27T05:59:03.680Z,18.04
2022-08-27T06:04:12.210Z,18.05
2022-08-27T06:09:25.253Z,18.05
2022-08-27T06:14:30.637Z,18.05
2022-08-27T06:19:37.828Z,18.01
2022-08-27T06:24:43.557Z,18.02
2022-08-27T06:29:48.855Z,17.99
2022-08-27T06:34:56.122Z,17.98
2022-08-27T06:40:00.693Z,17.97
2022-08-27T06:45:06.080Z,17.98
2022-08-27T06:50:16.457Z,17.96
2022-08-27T06:55:24.495Z,17.99
2022-08-27T07:00:32.547Z,18.00
2022-08-27T07:05:42.318Z,18.01
2022-08-27T07:10:46.989Z,18.03
2022-08-27T07:15:51.701Z,18.06
2022-08-27T07:20:59.618Z,18.09
2022-08-27T07:26:05.227Z,18.13
2022-08-27T07:31:11.108Z,18.15
2022-08-27T07:36:20.333Z,18.17
2022-08-27T07:41:30.575Z,18.17
2022-08-27T07:46:39.728Z,18.16
2022-08-27T07:51:48.789Z,18.17
2022-08-27T07:56:55.379Z,18.21
2022-08-27T08:02:00.861Z,18.24
2022-08-27T08:07:08.084Z,18.27
2022-08-27T08:12:12.727Z,18.31
2022-08-27T08:17:17.780Z,18.33
2022-08-27T08:22:25.061Z,18.35
2022-08-27T08:27:29.797Z,18.40
2022-08-27T08:32:34.410Z,18.51
2022-08-27T08:37:42.462Z,18.54
2022-08-27T08:42:54.734Z,18.58
2022-08-27T08:48:05.422Z,18.68
2022-08-27T08:53:30.343Z,18.77
2022-08-27T08:58:44.273Z,18.79
2022-08-27T09:03:55.827Z,18.76
2022-08-27T09:09:12.206Z,18.78
2022-08-27T09:15:12.453Z,18.85
2022-08-27T09:22:07.494Z,18.94
2022-08-27T09:34:03.001Z,19.07
2022-08-27T09:58:52.533Z,19.12
2022-08-27T10:23:47.600Z,19.36
2022-08-27T10:29:13.673Z,19.47
2022-08-27T10:34:32.624Z,19.58
2022-08-27T10:39:55.319Z,19.54
2022-08-27T10:45:31.007Z,19.61
2022-08-27T10:50:42.901Z,19.64
2022-08-27T10:55:54.216Z,19.68
2022-08-27T11:01:06.370Z,19.69
2022-08-27T11:06:18.697Z,19.78
2022-08-27T11:12:10.418Z,19.88
2022-08-27T11:17:01.891Z,19.92
2022-08-27T11:22:17.029Z,19.97
2022-08-27T11:27:36.262Z,19.93
2022-08-27T11:32:50.109Z,19.56
2022-08-27T11:38:15.033Z,19.38
2022-08-27T11:43:25.556Z,19.36
2022-08-27T11:48:32.991Z,19.31
2022-08-27T11:53:52.051Z,19.34
2022-08-27T11:59:11.273Z,19.35
2022-08-27T12:04:26.905Z,19.33
2022-08-27T12:09:34.917Z,19.37
2022-08-27T12:14:48.973Z,19.45
2022-08-27T12:20:10.101Z,19.53
2022-08-27T12:25:23.789Z,19.56
2022-08-27T12:30:36.933Z,19.56
2022-08-27T12:35:47.380Z,19.69
2022-08-27T12:40:54.410Z,19.84
2022-08-27T12:46:31.920Z,19.98
2022-08-27T12:51:39.134Z,20.10
2022-08-27T12:56:57.856Z,20.22
2022-08-27T13:02:18.340Z,20.12
2022-08-27T13:07:37.904Z,20.15
2022-08-27T13:12:43.441Z,20.14
2022-08-27T13:17:52.818Z,20.24
2022-08-27T13:22:58.266Z,20.33
2022-08-27T13:28:08.469Z,20.52
2022-08-27T13:33:29.153Z,20.64
2022-08-27T13:38:36.766Z,20.82
2022-08-27T13:43:44.101Z,21.02
2022-08-27T13:48:53.613Z,21.22
2022-08-27T13:54:11.141Z,21.46
2022-08-27T13:59:18.312Z,21.61
2022-08-27T14:04:28.689Z,21.68
2022-08-27T14:09:33.480Z,21.62
2022-08-27T14:14:40.875Z,21.63
2022-08-27T14:19:49.677Z,21.60
2022-08-27T14:24:54.879Z,21.44
2022-08-27T14:29:59.543Z,21.66
2022-08-27T14:35:07.516Z,21.99
2022-08-27T14:40:14.739Z,22.15
2022-08-27T14:45:21.027Z,22.19
2022-08-27T14:50:28.962Z,21.82
2022-08-27T14:55:34.679Z,21.73
2022-08-27T15:00:40.027Z,21.81
2022-08-27T15:05:47.783Z,21.82
2022-08-27T15:10:58.099Z,21.73
2022-08-27T15:16:05.743Z,21.79
2022-08-27T15:21:13.283Z,21.69
2022-08-27T15:26:18.076Z,21.44
2022-08-27T15:31:23.414Z,21.24
2022-08-27T15:36:30.718Z,21.28
2022-08-27T15:41:50.805Z,21.23
2022-08-27T15:47:01.795Z,21.18
2022-08-27T15:52:10.415Z,21.28
2022-08-27T15:57:20.845Z,21.36
2022-08-27T16:02:27.244Z,21.51
2022-08-27T16:07:34.665Z,21.64
2022-08-27T16:12:39.201Z,21.66
2022-08-27T16:17:44.887Z,21.95
2022-08-27T16:22:52.338Z,22.32
2022-08-27T16:28:04.747Z,22.46
2022-08-27T16:33:14.683Z,22.30
2022-08-27T16:38:22.103Z,22.06
2022-08-27T16:43:29.293Z,21.92
2022-08-27T16:48:46.494Z,21.84
2022-08-27T16:53:54.273Z,21.65
2022-08-27T16:58:59.226Z,21.53
2022-08-27T17:04:15.386Z,21.44
2022-08-27T17:09:24.007Z,21.30
2022-08-27T17:14:29.418Z,21.22
2022-08-27T17:19:35.047Z,21.19
2022-08-27T17:24:43.034Z,21.06
2022-08-27T17:29:47.618Z,20.87
2022-08-27T17:34:52.186Z,20.83
2022-08-27T17:40:00.242Z,20.69
2022-08-27T17:45:06.873Z,20.55
2022-08-27T17:50:12.692Z,20.43
2022-08-27T17:55:20.377Z,20.26
2022-08-27T18:00:25.183Z,20.19
2022-08-27T18:05:30.382Z,20.07
2022-08-27T18:10:38.879Z,19.94
2022-08-27T18:15:45.641Z,19.94
2022-08-27T18:20:50.291Z,19.85
2022-08-27T18:25:59.917Z,19.71
2022-08-27T18:31:06.519Z,19.69
2022-08-27T18:36:12.147Z,19.63
2022-08-27T18:41:20.379Z,19.54
2022-08-27T18:46:25.528Z,19.54
2022-08-27T18:51:31.411Z,19.56
2022-08-27T18:56:45.874Z,19.49
2022-08-27T19:01:50.608Z,19.49
2022-08-27T19:06:56.595Z,19.50
2022-08-27T19:12:04.494Z,19.48
2022-08-27T19:17:10.600Z,19.42
2022-08-27T19:22:15.230Z,19.32
2022-08-27T19:27:26.561Z,19.28
2022-08-27T19:32:31.187Z,19.19
2022-08-27T19:37:45.295Z,19.20
2022-08-27T19:42:59.551Z,19.11
2022-08-27T19:48:04.166Z,19.16
2022-08-27T19:53:10.832Z,19.14
2022-08-27T19:58:22.252Z,19.09
2022-08-27T20:03:26.775Z,19.04
2022-08-27T20:08:31.774Z,19.05
2022-08-27T20:13:40.756Z,19.05
2022-08-27T20:18:58.394Z,19.03
2022-08-27T20:24:06.180Z,19.04
2022-08-27T20:29:14.938Z,19.04
2022-08-27T20:34:39.670Z,18.97
2022-08-27T20:39:44.588Z,18.88
2022-08-27T20:44:52.507Z,18.87
2022-08-27T20:49:57.547Z,18.81
2022-08-27T20:55:02.252Z,18.76
2022-08-27T21:00:24.015Z,18.69
2022-08-27T21:05:28.771Z,18.69
2022-08-27T21:10:33.800Z,18.64
2022-08-27T21:15:41.228Z,18.62
2022-08-27T21:20:45.990Z,18.59
2022-08-27T21:25:51.482Z,18.60
2022-08-27T21:30:58.895Z,18.55
2022-08-27T21:36:04.122Z,18.53
2022-08-27T21:41:09.139Z,18.53
2022-08-27T21:46:16.456Z,18.52
2022-08-27T21:51:24.675Z,18.52
2022-08-27T21:56:30.082Z,18.52
2022-08-27T22:01:37.746Z,18.51
2022-08-27T22:06:42.800Z,18.50
2022-08-27T22:11:47.496Z,18.47
2022-08-27T22:16:54.838Z,18.45
2022-08-27T22:21:59.719Z,18.43
2022-08-27T22:27:04.687Z,18.38
2022-08-27T22:32:11.974Z,18.39
2022-08-27T22:37:16.931Z,18.38
2022-08-27T22:42:21.783Z,18.35
2022-08-27T22:47:29.223Z,18.35
2022-08-27T22:52:34.407Z,18.29
2022-08-27T22:57:39.064Z,18.30
2022-08-27T23:02:46.230Z,18.27
2022-08-27T23:07:50.965Z,18.25
2022-08-27T23:12:56.568Z,18.22
2022-08-27T23:18:04.257Z,18.25
2022-08-27T23:23:10.217Z,18.22
2022-08-27T23:28:16.862Z,18.21
2022-08-27T23:33:24.810Z,18.16
2022-08-27T23:38:30.529Z,18.14
2022-08-27T23:43:35.148Z,18.10
2022-08-27T23:48:42.273Z,18.09
2022-08-27T23:53:46.811Z,18.03
2022-08-27T23:58:51.721Z,17.98
